Latest Weather Observations for Warrnambool

IDV60801

Issued at 12:42 pm EST Tuesday 27 September 2022 (issued every 10 minutes, with the page automatically refreshed every 10 minutes)

About weather observations | Map of weather stations | Latest weather observations for VIC | Other Formats
Station Details ID: 090186 Name: WARRNAMBOOL AIRPORT NDB Lat: -38.29 Lon: 142.45 Height: 70.8 m
Data from the previous 72 hours. | See also: Recent months at Warrnambool
Date/Time
EST
Temp
°C
App
Temp
°C
Dew
Point
°C
Rel
Hum
%
Delta-T
°C
Wind Press
QNH
hPa
Press
MSL
hPa
Rain since
9am
mm
Dir  Spd
km/h
Gust
km/h
Spd
kts
Gust
kts
27/12:30pm 12.3 8.6 11.4 94 0.5 SSE 22 28 12 15 1015.2 1015.2 0.0
27/12:26pm 12.4 8.3 11.3 93 0.6 SSE 24 32 13 17 1015.2 1015.2 0.0
27/12:25pm 12.5 8.4 11.4 93 0.6 SSE 24 32 13 17 1015.2 1015.2 0.0
27/12:16pm 12.4 8.2 11.0 91 0.7 SSE 24 33 13 18 1015.2 1015.2 0.0
27/12:00pm 12.5 8.0 10.2 86 1.2 SSE 24 35 13 19 1015.2 1015.2 0.0
27/11:56am 12.6 8.7 10.7 88 1.0 SSE 22 30 12 16 1015.2 1015.2 0.0
27/11:43am 12.3 8.0 10.9 91 0.7 SSE 24 33 13 18 1015.1 1015.1 0.0
27/11:37am 12.3 8.8 11.0 92 0.7 SSE 20 30 11 16 1015.1 1015.1 0.0
27/11:32am 12.2 8.3 10.8 91 0.7 SSE 22 32 12 17 1015.1 1015.1 0.0
27/11:30am 12.6 9.0 11.7 94 0.5 SSE 22 32 12 17 1015.2 1015.2 0.0
27/11:15am 12.4 8.3 11.3 93 0.6 SSE 24 33 13 18 1015.1 1015.1 0.0
27/11:14am 12.4 8.3 11.3 93 0.6 SSE 24 35 13 19 1015.1 1015.1 0.0
27/11:00am 12.3 6.8 10.7 90 0.8 SSE 30 39 16 21 1015.1 1015.1 0.0
27/10:30am 12.6 6.6 10.7 88 1.0 SSE 33 41 18 22 1015.1 1015.1 0.0
27/10:00am 12.9 6.6 11.1 89 0.9 SSE 35 44 19 24 1015.0 1015.0 0.0
27/09:30am 12.9 7.6 11.3 90 0.8 S 30 41 16 22 1014.9 1014.9 0.0
27/09:00am 12.7 8.1 10.9 89 0.9 SSE 26 33 14 18 1014.6 1014.6 21.0
27/08:58am 12.8 8.2 11.0 89 0.9 SSE 26 33 14 18 1014.6 1014.6 21.0
27/08:30am 11.6 6.0 10.0 90 0.8 SSE 30 39 16 21 1014.3 1014.3 21.0
27/08:00am 11.7 7.0 9.3 85 1.2 SSE 24 35 13 19 1014.1 1014.1 21.0
27/07:37am 11.4 7.7 10.3 93 0.6 SE 20 26 11 14 1014.1 1014.1 21.0
27/07:30am 10.9 6.3 9.7 92 0.6 SE 24 35 13 19 1014.0 1014.0 21.0
27/07:19am 11.6 6.5 10.7 94 0.5 SSE 28 33 15 18 1013.9 1013.9 21.0
27/07:17am 11.6 6.9 10.7 94 0.5 SSE 26 33 14 18 1013.9 1013.9 21.0
27/07:05am 11.6 8.6 10.8 95 0.4 SSE 17 24 9 13 1013.8 1013.8 21.0
27/07:00am 11.6 9.0 10.8 95 0.4 SSE 15 20 8 11 1013.7 1013.7 21.0
27/06:46am 11.5 9.0 10.9 96 0.3 SSE 15 19 8 10 1013.6 1013.6 21.0
27/06:36am 11.3 7.7 10.5 95 0.4 SSE 20 32 11 17 1013.5 1013.5 21.0
27/06:30am 11.1 7.5 10.5 96 0.3 SSE 20 32 11 17 1013.5 1013.5 20.8
27/06:12am 11.2 8.6 10.7 97 0.3 SSE 15 20 8 11 1013.2 1013.2 20.0
27/06:00am 11.3 8.7 10.8 97 0.3 SSE 15 22 8 12 1013.1 1013.1 19.8
27/05:30am 11.0 8.3 10.5 97 0.3 SSE 15 17 8 9 1012.9 1012.9 19.4
27/05:11am 10.9 8.6 10.4 97 0.3 SE 13 19 7 10 1012.9 1012.9 19.4
27/05:09am 10.9 8.2 10.4 97 0.3 SE 15 20 8 11 1012.9 1012.9 19.4
27/05:00am 11.0 8.0 10.5 97 0.3 SE 17 20 9 11 1012.7 1012.8 19.4
27/04:58am 11.0 8.0 10.5 97 0.3 SE 17 20 9 11 1012.7 1012.8 19.4
27/04:30am 11.1 8.1 10.6 97 0.3 SSE 17 32 9 17 1012.7 1012.8 18.2
27/04:00am 10.6 9.4 10.3 98 0.2 SW 7 13 4 7 1012.7 1012.8 9.6
27/03:30am 10.3 8.6 10.0 98 0.2 WNW 9 11 5 6 1012.7 1012.8 7.2
27/03:17am 10.3 9.0 10.0 98 0.2 WNW 7 13 4 7 1012.7 1012.8 6.0
27/03:07am 10.1 8.4 9.8 98 0.2 WNW 9 13 5 7 1012.7 1012.8 5.8
27/03:00am 10.1 8.8 9.8 98 0.2 WNW 7 11 4 6 1012.7 1012.8 5.8
27/02:50am 10.1 8.4 9.8 98 0.2 WNW 9 13 5 7 1012.7 1012.8 5.8
27/02:38am 10.2 8.5 9.9 98 0.2 W 9 11 5 6 1012.9 1012.9 5.8
27/02:30am 10.2 8.1 9.9 98 0.2 W 11 13 6 7 1012.9 1012.9 5.8
27/02:21am 10.1 7.6 9.8 98 0.2 W 13 15 7 8 1012.9 1012.9 5.8
27/02:00am 9.8 7.6 9.5 98 0.1 W 11 15 6 8 1013.0 1013.0 5.8
27/01:30am 9.7 7.9 9.4 98 0.1 WNW 9 11 5 6 1013.3 1013.3 5.8
27/01:09am 9.3 7.4 9.0 98 0.1 WNW 9 11 5 6 1013.5 1013.5 5.8
27/01:00am 9.6 7.8 9.3 98 0.1 W 9 11 5 6 1013.6 1013.6 5.8
27/12:30am 9.2 6.9 8.9 98 0.1 WNW 11 15 6 8 1013.6 1013.6 5.8
27/12:00am 9.6 7.3 9.1 97 0.2 WNW 11 13 6 7 1013.7 1013.7 5.8
 
Date/Time
EST
Temp
°C
App
Temp
°C
Dew
Point
°C
Rel
Hum
%
Delta-T
°C
Wind Press
QNH
hPa
Press
MSL
hPa
Rain since
9am
mm
Dir  Spd
km/h
Gust
km/h
Spd
kts
Gust
kts
26/11:30pm 10.4 9.7 9.9 97 0.3 WNW 4 11 2 6 1013.7 1013.7 5.8
26/11:25pm 10.4 10.4 9.9 97 0.3 CALM 0 6 0 3 1013.8 1013.8 5.8
26/11:16pm 10.5 9.8 10.0 97 0.3 W 4 7 2 4 1013.9 1013.9 5.8
26/11:00pm 10.7 10.8 10.2 97 0.3 CALM 0 0 0 0 1013.9 1013.9 5.8
26/10:59pm 10.7 10.8 10.2 97 0.3 CALM 0 0 0 0 1013.9 1013.9 5.8
26/10:43pm 10.9 10.3 10.4 97 0.3 W 4 6 2 3 1014.0 1014.0 5.8
26/10:33pm 11.0 10.8 10.5 97 0.3 W 2 6 1 3 1014.0 1014.0 5.8
26/10:30pm 11.0 10.8 10.5 97 0.3 W 2 9 1 5 1014.0 1014.0 5.8
26/10:00pm 11.1 9.6 10.6 97 0.3 W 9 11 5 6 1014.2 1014.2 5.8
26/09:50pm 11.1 10.0 10.6 97 0.3 WSW 7 11 4 6 1014.1 1014.1 5.8
26/09:30pm 11.0 9.9 10.5 97 0.3 SW 7 9 4 5 1014.1 1014.1 5.8
26/09:00pm 11.0 10.1 10.5 97 0.3 S 6 7 3 4 1014.2 1014.2 5.8
26/08:30pm 10.8 9.8 10.3 97 0.3 S 6 9 3 5 1014.1 1014.1 5.4
26/08:28pm 10.8 9.8 10.3 97 0.3 S 6 9 3 5 1014.2 1014.2 5.4
26/08:08pm 10.8 8.5 10.3 97 0.3 SE 13 19 7 10 1013.9 1013.9 5.4
26/08:00pm 10.9 8.6 10.4 97 0.3 SE 13 17 7 9 1013.8 1013.8 5.4
26/07:56pm 10.9 9.0 10.4 97 0.3 SSE 11 15 6 8 1013.8 1013.8 5.4
26/07:30pm 11.1 9.6 10.6 97 0.3 S 9 13 5 7 1013.7 1013.7 5.4
26/07:00pm 11.1 9.6 10.6 97 0.3 SSW 9 13 5 7 1013.4 1013.4 4.4
26/06:34pm 11.3 10.2 10.7 96 0.3 S 7 11 4 6 1013.1 1013.1 4.2
26/06:30pm 11.3 10.2 10.7 96 0.3 S 7 9 4 5 1013.1 1013.1 4.2
26/06:24pm 11.3 9.8 10.7 96 0.3 SSE 9 11 5 6 1013.0 1013.0 3.8
26/06:00pm 11.3 9.8 10.5 95 0.4 SSW 9 11 5 6 1012.9 1012.9 3.2
26/05:58pm 11.4 9.9 10.6 95 0.4 SSW 9 11 5 6 1012.9 1012.9 3.0
26/05:57pm 11.5 10.0 10.7 95 0.4 SSW 9 11 5 6 1012.9 1012.9 3.0
26/05:47pm 11.4 10.3 10.6 95 0.4 SSW 7 11 4 6 1012.7 1012.8 3.0
26/05:35pm 11.6 9.8 10.8 95 0.4 S 11 15 6 8 1012.5 1012.6 3.0
26/05:30pm 11.6 9.4 10.8 95 0.4 S 13 15 7 8 1012.4 1012.5 3.0
26/05:00pm 11.8 9.6 10.7 93 0.6 S 13 17 7 9 1012.3 1012.4 2.6
26/04:30pm 12.1 9.9 10.8 92 0.7 SSW 13 15 7 8 1012.3 1012.4 2.4
26/04:00pm 12.6 11.2 11.0 90 0.8 SSW 9 13 5 7 1012.3 1012.4 1.8
26/03:38pm 13.0 10.9 11.2 89 1.0 SSW 13 17 7 9 1012.3 1012.4 1.8
26/03:30pm 13.2 11.2 11.6 90 0.9 SSW 13 17 7 9 1012.3 1012.4 1.8
26/03:00pm 13.2 11.0 12.1 93 0.6 SSW 15 19 8 10 1012.4 1012.5 1.8
26/02:30pm 12.7 10.7 11.4 92 0.7 SSW 13 15 7 8 1012.7 1012.8 1.8
26/02:29pm 12.9 11.0 11.8 93 0.6 SSW 13 15 7 8 1012.7 1012.8 1.8
26/02:05pm 12.8 10.7 11.0 89 0.9 SW 13 15 7 8 1012.9 1012.9 1.8
26/02:00pm 12.8 11.2 11.4 91 0.7 SW 11 15 6 8 1013.0 1013.0 1.8
26/01:55pm 12.7 11.0 11.3 91 0.7 WSW 11 15 6 8 1013.0 1013.0 1.8
26/01:30pm 12.5 10.9 11.4 93 0.6 WSW 11 15 6 8 1013.1 1013.1 1.6
26/01:28pm 12.5 10.8 11.2 92 0.7 WSW 11 15 6 8 1013.1 1013.1 1.6
26/01:08pm 12.7 11.4 11.3 91 0.7 WNW 9 13 5 7 1013.3 1013.3 1.6
26/01:04pm 13.0 11.9 11.9 93 0.6 WNW 9 13 5 7 1013.4 1013.4 1.6
26/01:00pm 12.5 11.2 11.1 91 0.7 WNW 9 13 5 7 1013.4 1013.4 1.4
26/12:58pm 12.6 11.3 11.3 92 0.7 WNW 9 13 5 7 1013.4 1013.4 1.4
26/12:49pm 12.6 11.4 11.7 94 0.5 WNW 9 15 5 8 1013.5 1013.5 1.4
26/12:30pm 12.3 10.6 11.2 93 0.6 WNW 11 15 6 8 1013.7 1013.7 1.4
26/12:24pm 12.5 10.9 11.6 94 0.5 WNW 11 17 6 9 1013.7 1013.7 1.4
26/12:00pm 12.4 11.2 11.6 95 0.4 WNW 9 15 5 8 1014.0 1014.0 1.4
26/11:30am 12.0 10.3 11.1 94 0.5 WNW 11 15 6 8 1014.2 1014.2 1.4
26/11:09am 12.0 10.7 11.1 94 0.5 NW 9 13 5 7 1014.3 1014.3 1.4
26/11:00am 12.2 10.9 11.4 95 0.4 NW 9 13 5 7 1014.3 1014.3 1.4
26/10:53am 12.2 11.3 11.4 95 0.4 WNW 7 11 4 6 1014.3 1014.3 1.4
26/10:30am 11.9 10.6 11.3 96 0.3 WNW 9 11 5 6 1014.5 1014.5 1.4
26/10:23am 12.0 10.7 11.4 96 0.3 W 9 11 5 6 1014.5 1014.5 1.4
26/10:22am 11.8 10.5 11.2 96 0.3 W 9 11 5 6 1014.5 1014.5 1.4
26/10:00am 11.4 10.0 10.8 96 0.3 W 9 11 5 6 1014.7 1014.7 1.0
26/09:30am 11.4 10.0 10.8 96 0.3 WNW 9 13 5 7 1014.7 1014.7 0.2
26/09:00am 11.4 10.0 10.8 96 0.3 WNW 9 11 5 6 1014.6 1014.6 4.4
26/08:30am 11.4 10.4 10.9 97 0.3 NW 7 15 4 8 1014.7 1014.7 4.2
26/08:08am 11.4 10.4 10.9 97 0.3 NNW 7 9 4 5 1014.8 1014.8 3.6
26/08:00am 11.3 10.2 10.8 97 0.3 NNW 7 9 4 5 1014.8 1014.8 3.2
26/07:30am 11.2 9.7 10.7 97 0.3 NNW 9 11 5 6 1014.8 1014.8 2.4
26/07:00am 11.1 9.6 10.6 97 0.3 N 9 11 5 6 1014.7 1014.7 1.8
26/06:30am 11.0 9.8 10.4 96 0.3 N 7 9 4 5 1014.5 1014.5 1.6
26/06:00am 11.0 9.5 10.4 96 0.3 N 9 11 5 6 1014.4 1014.4 1.2
26/05:50am 11.0 9.5 10.4 96 0.3 N 9 11 5 6 1014.4 1014.4 0.6
26/05:43am 11.0 9.8 10.4 96 0.3 N 7 11 4 6 1014.5 1014.5 0.6
26/05:30am 11.0 9.8 10.4 96 0.3 N 7 9 4 5 1014.4 1014.4 0.4
26/05:26am 11.0 9.8 10.4 96 0.3 N 7 9 4 5 1014.4 1014.4 0.4
26/05:17am 11.0 9.8 10.4 96 0.3 N 7 9 4 5 1014.4 1014.4 0.4
26/05:02am 11.0 9.8 10.2 95 0.4 NNE 7 9 4 5 1014.3 1014.3 0.2
26/05:00am 11.0 9.8 10.2 95 0.4 N 7 9 4 5 1014.3 1014.3 0.0
26/04:30am 11.0 9.4 10.1 94 0.5 NNW 9 11 5 6 1014.2 1014.2 0.0
26/04:00am 11.1 9.8 10.0 93 0.6 NNW 7 11 4 6 1014.2 1014.2 0.0
26/03:30am 11.1 8.7 9.9 92 0.6 NNW 13 15 7 8 1014.2 1014.2 0.0
26/03:00am 11.1 8.2 9.5 90 0.8 N 15 17 8 9 1014.4 1014.4 0.0
26/02:30am 10.6 8.3 8.9 89 0.8 N 11 15 6 8 1014.7 1014.7 0.0
26/02:00am 10.7 9.1 8.6 87 1.0 NE 7 9 4 5 1014.9 1014.9 0.0
26/01:30am 10.5 9.5 8.9 90 0.8 N 4 9 2 5 1015.5 1015.5 0.0
26/01:00am 10.6 10.4 9.0 90 0.8 CALM 0 0 0 0 1015.8 1015.8 0.0
26/12:30am 10.9 10.6 8.7 86 1.1 CALM 0 0 0 0 1015.9 1015.9 0.0
26/12:00am 11.1 10.9 9.2 88 1.0 CALM 0 0 0 0 1015.9 1015.9 0.0
 
Date/Time
EST
Temp
°C
App
Temp
°C
Dew
Point
°C
Rel
Hum
%
Delta-T
°C
Wind Press
QNH
hPa
Press
MSL
hPa
Rain since
9am
mm
Dir  Spd
km/h
Gust
km/h
Spd
kts
Gust
kts
25/11:30pm 11.3 10.9 8.2 81 1.5 CALM 0 0 0 0 1016.1 1016.1 0.0
25/11:00pm 11.4 10.9 7.9 79 1.7 CALM 0 0 0 0 1016.3 1016.3 0.0
25/10:30pm 11.4 11.1 8.8 84 1.3 CALM 0 0 0 0 1016.2 1016.2 0.0
25/10:00pm 11.5 11.3 8.9 84 1.3 CALM 0 0 0 0 1016.3 1016.3 0.0
25/09:30pm 11.6 10.0 8.6 82 1.5 ESE 7 7 4 4 1016.1 1016.1 0.0
25/09:18pm 11.7 10.3 8.9 83 1.4 ESE 6 7 3 4 1016.1 1016.1 0.0
25/09:00pm 11.8 11.6 9.0 83 1.4 CALM 0 0 0 0 1016.2 1016.2 0.0
25/08:30pm 11.8 11.1 8.6 81 1.6 ESE 2 9 1 5 1016.1 1016.1 0.0
25/08:00pm 11.8 10.3 9.0 83 1.4 SE 7 9 4 5 1015.9 1015.9 0.0
25/07:30pm 11.6 9.6 8.8 83 1.4 SSE 9 11 5 6 1015.4 1015.4 0.0
25/07:00pm 11.6 9.2 8.8 83 1.4 SSE 11 11 6 6 1015.1 1015.1 0.0
25/06:30pm 12.2 10.3 8.9 80 1.7 SSE 9 11 5 6 1014.9 1014.9 0.0
25/06:00pm 13.2 10.9 9.1 76 2.1 SSE 11 15 6 8 1014.7 1014.7 0.0
25/05:30pm 15.4 13.9 9.1 66 3.2 NW 7 9 4 5 1014.4 1014.4 0.0
25/05:00pm 15.7 14.0 10.0 69 3.0 NNW 9 13 5 7 1014.1 1014.1 0.0
25/04:30pm 16.3 13.8 8.3 59 4.1 NW 11 15 6 8 1013.9 1013.9 0.0
25/04:00pm 16.4 13.7 9.1 62 3.8 NW 13 20 7 11 1014.0 1014.0 0.0
25/03:30pm 16.2 12.9 8.2 59 4.1 NW 15 20 8 11 1014.0 1014.0 0.0
25/03:00pm 16.7 13.0 9.4 62 3.8 WNW 19 24 10 13 1014.5 1014.5 0.0
25/02:30pm 16.7 13.4 7.9 56 4.5 NW 15 24 8 13 1014.5 1014.5 0.0
25/02:00pm 17.2 14.4 8.4 56 4.5 WNW 13 22 7 12 1014.6 1014.6 0.0
25/01:30pm 16.9 12.9 8.3 57 4.4 NW 19 32 10 17 1014.8 1014.8 0.0
25/01:00pm 16.6 12.8 9.1 61 3.9 NW 19 28 10 15 1015.0 1015.0 0.0
25/12:30pm 15.5 11.4 8.7 64 3.5 NW 20 26 11 14 1015.3 1015.3 0.0
25/12:00pm 15.3 10.3 8.1 62 3.6 NNW 24 33 13 18 1015.5 1015.5 0.0
25/11:30am 14.6 9.7 6.9 60 3.8 NW 22 30 12 16 1015.7 1015.7 0.0
25/11:00am 14.8 9.6 7.4 61 3.7 NNW 24 35 13 19 1015.6 1015.6 0.0
25/10:30am 13.0 7.8 7.2 68 2.8 NNW 24 30 13 16 1015.9 1015.9 0.0
25/10:00am 13.5 9.3 8.1 70 2.7 NNW 20 28 11 15 1015.9 1015.9 0.0
25/09:30am 12.1 7.5 6.6 69 2.6 N 20 28 11 15 1016.0 1016.0 0.0
25/09:00am 10.2 6.5 6.2 76 1.9 N 15 19 8 10 1015.9 1015.9 0.0
25/08:30am 8.2 3.3 5.0 80 1.4 NNE 20 24 11 13 1015.8 1015.8 0.0
25/08:00am 6.2 1.1 4.0 86 0.9 N 20 24 11 13 1015.8 1015.8 0.0
25/07:30am 5.5 1.0 4.0 90 0.6 N 17 20 9 11 1015.2 1015.2 0.0
25/07:00am 3.0 -1.9 1.8 92 0.5 NNE 17 19 9 10 1015.3 1015.3 0.0
25/06:30am 2.2 -3.2 1.0 92 0.5 NNE 19 20 10 11 1015.1 1015.1 0.0
25/06:00am 1.9 -2.8 0.9 93 0.4 N 15 17 8 9 1015.3 1015.3 0.0
25/05:30am 1.9 -2.8 0.9 93 0.4 NNE 15 19 8 10 1015.0 1015.0 0.0
25/05:00am 2.1 -3.0 0.9 92 0.5 NNE 17 20 9 11 1015.0 1015.0 0.0
25/04:30am 1.3 -3.1 0.3 93 0.4 N 13 15 7 8 1015.2 1015.2 0.0
25/04:00am 1.6 -3.6 0.4 92 0.4 N 17 17 9 9 1015.3 1015.3 0.0
25/03:30am 1.2 -3.6 0.2 93 0.4 N 15 17 8 9 1015.6 1015.6 0.0
25/03:00am 0.9 -3.6 0.0 94 0.3 N 13 15 7 8 1015.5 1015.5 0.0
25/02:30am 0.9 -3.6 0.0 94 0.3 N 13 13 7 7 1015.9 1015.9 0.0
25/02:00am 1.1 -3.0 0.1 93 0.4 N 11 13 6 7 1016.0 1016.0 0.0
25/01:30am 1.5 -2.5 0.6 94 0.3 NNE 11 11 6 6 1016.4 1016.4 0.0
25/01:00am 1.1 -2.6 0.1 93 0.4 N 9 11 5 6 1016.7 1016.7 0.0
25/12:30am 1.7 -1.5 0.7 93 0.4 NNW 7 9 4 5 1017.0 1017.0 0.0
25/12:00am 2.0 -1.5 1.0 93 0.4 N 9 13 5 7 1017.1 1017.1 0.0
 
Date/Time
EST
Temp
°C
App
Temp
°C
Dew
Point
°C
Rel
Hum
%
Delta-T
°C
Wind Press
QNH
hPa
Press
MSL
hPa
Rain since
9am
mm
Dir  Spd
km/h
Gust
km/h
Spd
kts
Gust
kts
24/11:30pm 2.2 0.4 0.9 91 0.5 CALM 0 0 0 0 1017.0 1017.0 0.0
24/11:00pm 2.2 0.3 0.6 89 0.6 CALM 0 0 0 0 1017.1 1017.1 0.0
24/10:30pm 2.8 1.0 1.5 91 0.5 CALM 0 0 0 0 1017.1 1017.1 0.0
24/10:00pm 2.7 0.9 1.4 91 0.5 CALM 0 0 0 0 1017.2 1017.2 0.0
24/09:30pm 3.0 1.2 1.5 90 0.6 CALM 0 0 0 0 1017.3 1017.3 0.0
24/09:00pm 3.2 1.5 1.9 91 0.5 CALM 0 0 0 0 1017.3 1017.3 0.0
24/08:30pm 3.9 2.2 2.1 88 0.7 CALM 0 0 0 0 1017.2 1017.2 0.0
24/08:00pm 4.8 3.2 2.7 86 0.9 CALM 0 0 0 0 1017.4 1017.4 0.0
24/07:30pm 5.6 4.0 2.4 80 1.3 CALM 0 0 0 0 1017.3 1017.3 0.0
24/07:00pm 6.5 4.9 2.4 75 1.7 CALM 0 0 0 0 1017.2 1017.2 0.0
24/06:30pm 8.1 6.2 2.6 68 2.3 SE 2 6 1 3 1017.3 1017.3 0.0
24/06:00pm 9.0 5.1 3.4 68 2.4 SSE 13 15 7 8 1017.2 1017.2 0.0
24/05:30pm 10.5 7.1 4.0 64 2.9 S 11 13 6 7 1017.1 1017.1 0.0
24/05:00pm 11.1 6.7 2.9 57 3.6 SSE 15 19 8 10 1016.9 1016.9 0.0
24/04:30pm 11.5 6.6 1.7 51 4.2 SSE 17 20 9 11 1017.2 1017.2 0.0
24/04:00pm 11.7 6.0 0.8 47 4.5 S 20 28 11 15 1017.0 1017.0 0.0
24/03:30pm 12.3 7.0 3.0 53 4.1 SSW 20 26 11 14 1017.1 1017.1 0.0
24/03:00pm 12.3 7.1 3.5 55 3.9 S 20 30 11 16 1017.4 1017.4 0.0
24/02:30pm 12.5 6.8 2.7 51 4.3 S 22 30 12 16 1017.5 1017.5 0.0
24/02:00pm 12.6 7.4 5.3 61 3.4 S 22 30 12 16 1017.4 1017.4 0.0
24/01:30pm 13.0 8.2 5.7 61 3.4 S 20 32 11 17 1017.6 1017.6 0.0
24/01:00pm 12.4 7.1 5.1 61 3.4 SSE 22 30 12 16 1017.9 1017.9 0.0

Other formats

Comma delimited format used in spreadsheet applications
http://www.bom.gov.au/fwo/IDV60801/IDV60801.94837.axf

JavaScript Object Notation format (JSON) in row-major order
http://www.bom.gov.au/fwo/IDV60801/IDV60801.94837.json

Data quality

Most of these data are generated automatically and are frequently updated. Quality checks on data are not normally performed. It is possible for incorrect values to appear. Refer to information at About Latest Weather Observations and please check the disclaimer before using these data.